Time;durP1;ratioP1;P1;durP2;ratioP2;P2;SDS_P1;SDS_P2;PMS_P1;PMS_P2;Temp;Humidity;BMP_temperature;BMP_pressure;BME280_temperature;BME280_humidity;BME280_pressure;Samples;Min_cycle;Max_cycle;Signal;HPM_P1;HPM_P2
2022/10/19 00:00:51;;;;;;;8.50;8.30;;;13.50;99.90;;;;;;5041497;28;20286;-80
2022/10/19 00:03:24;;;;;;;8.33;8.13;;;13.40;99.90;;;;;;5041692;28;20239;-79
2022/10/19 00:05:51;;;;;;;8.53;8.33;;;13.40;99.90;;;;;;5041009;28;20266;-80
2022/10/19 00:08:19;;;;;;;8.50;8.30;;;13.40;99.90;;;;;;5041595;28;20235;-79
2022/10/19 00:10:49;;;;;;;8.90;8.60;;;13.40;99.90;;;;;;5041518;28;20315;-80
2022/10/19 00:13:18;;;;;;;9.13;8.83;;;13.40;99.90;;;;;;5040462;28;20295;-80
2022/10/19 00:15:48;;;;;;;9.10;8.80;;;13.40;99.90;;;;;;5040426;28;20291;-80
2022/10/19 00:18:18;;;;;;;9.20;8.90;;;13.40;99.90;;;;;;5041300;28;20231;-80
2022/10/19 00:20:49;;;;;;;9.30;9.00;;;13.40;99.90;;;;;;5041396;28;20278;-80
2022/10/19 00:23:16;;;;;;;9.00;8.70;;;13.40;99.90;;;;;;5040420;28;20233;-80
2022/10/19 00:25:54;;;;;;;9.20;8.90;;;13.40;99.90;;;;;;5040287;28;20220;-80
2022/10/19 00:28:23;;;;;;;9.20;8.90;;;13.30;99.90;;;;;;5040818;28;20299;-80
2022/10/19 00:30:53;;;;;;;9.30;9.00;;;13.30;99.90;;;;;;5040783;28;20311;-80
2022/10/19 00:33:26;;;;;;;9.07;8.77;;;13.20;99.90;;;;;;5039779;28;20240;-80
2022/10/19 00:35:57;;;;;;;9.10;8.80;;;13.30;99.90;;;;;;5040244;28;20258;-80
2022/10/19 00:38:24;;;;;;;9.07;8.77;;;13.20;99.90;;;;;;5027790;28;20259;-80
2022/10/19 00:40:53;;;;;;;9.40;9.10;;;13.20;99.90;;;;;;5021181;28;20256;-80
2022/10/19 00:43:24;;;;;;;9.30;9.00;;;13.20;99.90;;;;;;5020743;28;20327;-80
2022/10/19 00:45:52;;;;;;;9.27;8.97;;;13.20;99.90;;;;;;5020349;28;20303;-80
2022/10/19 00:48:31;;;;;;;9.30;9.00;;;13.20;99.90;;;;;;5020828;28;20371;-80
2022/10/19 00:51:02;;;;;;;9.30;9.00;;;13.20;99.90;;;;;;5020609;28;20239;-80
2022/10/19 00:53:31;;;;;;;9.00;8.70;;;13.20;99.90;;;;;;5020596;28;20244;-80
2022/10/19 00:56:07;;;;;;;9.30;9.00;;;13.20;99.90;;;;;;5020344;28;20228;-80
2022/10/19 00:58:36;;;;;;;9.30;9.00;;;13.20;99.90;;;;;;5020687;28;20299;-80
2022/10/19 01:01:06;;;;;;;9.20;8.90;;;13.20;99.90;;;;;;5024575;28;20315;-80
2022/10/19 01:03:36;;;;;;;9.30;9.00;;;13.20;99.90;;;;;;5031049;28;20251;-80
2022/10/19 01:06:15;;;;;;;9.30;9.00;;;13.20;99.90;;;;;;5031293;28;20279;-80
2022/10/19 01:08:43;;;;;;;9.20;8.90;;;13.20;99.90;;;;;;5022503;28;20854;-80
2022/10/19 01:11:39;;;;;;;9.20;8.90;;;13.20;99.90;;;;;;5021136;28;20815;-80
2022/10/19 01:14:26;;;;;;;9.30;9.00;;;13.20;99.90;;;;;;5020357;28;20242;-80
2022/10/19 01:17:04;;;;;;;9.10;8.80;;;13.30;99.90;;;;;;5019963;28;20251;-80
2022/10/19 01:20:19;;;;;;;9.30;9.00;;;13.30;99.90;;;;;;5020865;28;20268;-80
2022/10/19 01:23:15;;;;;;;9.10;8.80;;;13.30;99.90;;;;;;5013680;28;20270;-80
2022/10/19 01:25:55;;;;;;;8.77;8.50;;;13.20;99.90;;;;;;5019503;28;20232;-80
2022/10/19 01:28:47;;;;;;;8.60;8.40;;;13.30;99.90;;;;;;5020112;28;20231;-80
2022/10/19 01:31:27;;;;;;;8.83;8.53;;;13.20;99.90;;;;;;5020545;28;20293;-79
2022/10/19 01:34:06;;;;;;;8.90;8.60;;;13.20;99.90;;;;;;5019673;28;20242;-79
2022/10/19 01:36:42;;;;;;;9.07;8.77;;;13.20;99.90;;;;;;5019544;28;20267;-79
2022/10/19 01:39:22;;;;;;;9.20;8.90;;;13.20;99.90;;;;;;5020823;28;20228;-79
2022/10/19 01:41:59;;;;;;;9.10;8.80;;;13.20;99.90;;;;;;5019723;28;20307;-78
2022/10/19 01:44:37;;;;;;;9.00;8.70;;;13.20;99.90;;;;;;5020184;28;20235;-79
2022/10/19 01:47:16;;;;;;;9.00;8.70;;;13.20;99.90;;;;;;5020924;28;20240;-79
2022/10/19 01:49:54;;;;;;;8.73;8.53;;;13.20;99.90;;;;;;5020315;28;20284;-79
2022/10/19 01:52:23;;;;;;;8.90;8.60;;;13.20;99.90;;;;;;5027018;28;20299;-78
2022/10/19 01:54:55;;;;;;;9.20;8.90;;;13.20;99.90;;;;;;5033685;28;20246;-79
2022/10/19 01:57:30;;;;;;;9.30;9.00;;;13.20;99.90;;;;;;5035353;28;20248;-79
2022/10/19 02:00:06;;;;;;;9.33;9.03;;;13.10;99.90;;;;;;5034723;28;20250;-80
2022/10/19 02:02:38;;;;;;;9.30;9.00;;;13.10;99.90;;;;;;5026623;28;20342;-80
2022/10/19 02:05:08;;;;;;;9.40;9.10;;;13.10;99.90;;;;;;5021700;28;20236;-80
2022/10/19 02:07:38;;;;;;;9.00;8.70;;;13.10;99.90;;;;;;5021228;28;20228;-80
2022/10/19 02:10:07;;;;;;;8.93;8.63;;;13.10;99.90;;;;;;5022551;28;20267;-80
2022/10/19 02:12:36;;;;;;;9.07;8.77;;;13.10;99.90;;;;;;5022535;28;20304;-80
2022/10/19 02:15:15;;;;;;;9.30;9.00;;;13.10;99.90;;;;;;5022178;28;20303;-80
2022/10/19 02:17:52;;;;;;;9.40;9.10;;;13.10;99.90;;;;;;5022609;28;20231;-80
2022/10/19 02:20:22;;;;;;;9.20;8.90;;;13.00;99.90;;;;;;5021521;28;20224;-80
2022/10/19 02:22:51;;;;;;;9.33;9.03;;;13.00;99.90;;;;;;5019915;28;20252;-80
2022/10/19 02:25:20;;;;;;;9.60;9.30;;;13.00;99.90;;;;;;5019576;28;20327;-80
2022/10/19 02:27:50;;;;;;;9.53;9.23;;;12.90;99.90;;;;;;5019885;28;20779;-80
2022/10/19 02:30:20;;;;;;;9.33;9.03;;;12.90;99.90;;;;;;5020098;28;20259;-80
2022/10/19 02:32:59;;;;;;;9.33;9.03;;;12.90;99.90;;;;;;5019511;28;20228;-81
2022/10/19 02:35:28;;;;;;;9.60;9.30;;;13.00;99.90;;;;;;5018906;28;20249;-81
2022/10/19 02:37:59;;;;;;;9.20;8.90;;;13.00;99.90;;;;;;5019472;28;20295;-80
2022/10/19 02:40:30;;;;;;;9.10;8.80;;;13.00;99.90;;;;;;5019831;28;20222;-80
2022/10/19 02:43:06;;;;;;;9.10;8.80;;;13.10;99.90;;;;;;5021391;28;20351;-80
2022/10/19 02:48:31;;;;;;;9.30;9.00;;;13.10;99.90;;;;;;5019336;28;20228;-80
2022/10/19 02:51:00;;;;;;;9.00;8.70;;;13.10;99.90;;;;;;5019939;28;20319;-80
2022/10/19 02:53:30;;;;;;;8.80;8.60;;;13.10;99.90;;;;;;5019686;28;20331;-80
2022/10/19 02:56:00;;;;;;;8.77;8.57;;;13.10;99.90;;;;;;5022020;28;20295;-80
2022/10/19 02:58:29;;;;;;;8.90;8.60;;;13.10;99.90;;;;;;5022702;28;20270;-80
2022/10/19 03:00:59;;;;;;;8.73;8.53;;;13.10;99.90;;;;;;5022900;28;20327;-80
2022/10/19 03:03:38;;;;;;;8.70;8.50;;;13.10;99.90;;;;;;5022285;28;20224;-80
2022/10/19 03:06:06;;;;;;;8.63;8.43;;;13.10;99.90;;;;;;5022585;28;20307;-80
2022/10/19 03:08:35;;;;;;;8.50;8.30;;;13.10;99.90;;;;;;5021993;28;20263;-80
2022/10/19 03:11:05;;;;;;;8.47;8.27;;;13.10;99.90;;;;;;5021929;28;20228;-80
2022/10/19 03:13:35;;;;;;;8.70;8.50;;;13.10;99.90;;;;;;5021580;28;20244;-80
2022/10/19 03:16:13;;;;;;;8.57;8.37;;;13.10;99.90;;;;;;5021676;28;20251;-80
2022/10/19 03:18:51;;;;;;;8.70;8.50;;;13.10;99.90;;;;;;5022109;28;20322;-80
2022/10/19 03:21:21;;;;;;;8.60;8.40;;;13.20;99.90;;;;;;5033278;28;20226;-80
2022/10/19 03:23:50;;;;;;;8.30;8.10;;;13.10;99.90;;;;;;5041960;28;20212;-79
2022/10/19 03:26:19;;;;;;;8.30;8.10;;;13.10;99.90;;;;;;5042033;28;20228;-80
2022/10/19 03:28:49;;;;;;;8.50;8.30;;;13.10;99.90;;;;;;5042045;28;20263;-78
2022/10/19 03:31:19;;;;;;;8.57;8.37;;;13.10;99.90;;;;;;5041463;28;20232;-80
2022/10/19 03:33:50;;;;;;;8.20;8.00;;;13.10;99.90;;;;;;5038936;28;20295;-80
2022/10/19 03:36:25;;;;;;;8.30;8.10;;;13.10;99.90;;;;;;5028087;28;20232;-80
2022/10/19 03:38:55;;;;;;;8.60;8.40;;;13.10;99.90;;;;;;5022373;28;20294;-80
2022/10/19 03:41:25;;;;;;;8.60;8.40;;;13.20;99.90;;;;;;5020307;28;20283;-80
2022/10/19 03:43:54;;;;;;;8.37;8.17;;;13.10;99.90;;;;;;5021122;28;20291;-80
2022/10/19 03:46:23;;;;;;;8.50;8.30;;;13.10;99.90;;;;;;5022666;28;20327;-80
2022/10/19 03:49:02;;;;;;;8.40;8.20;;;13.20;99.90;;;;;;5021773;28;20429;-80
2022/10/19 03:51:32;;;;;;;8.50;8.30;;;13.20;99.90;;;;;;5022521;28;20224;-80
2022/10/19 03:54:10;;;;;;;8.20;8.00;;;13.20;99.90;;;;;;5021044;28;20300;-80
2022/10/19 03:56:39;;;;;;;8.50;8.30;;;13.20;99.90;;;;;;5021500;28;20252;-80
2022/10/19 03:59:09;;;;;;;8.63;8.43;;;13.20;99.90;;;;;;5021564;28;20271;-80
2022/10/19 04:01:39;;;;;;;8.57;8.37;;;13.20;99.90;;;;;;5022618;28;20275;-80
2022/10/19 04:04:16;;;;;;;8.53;8.33;;;13.20;99.90;;;;;;5020957;28;20243;-80
2022/10/19 04:06:46;;;;;;;8.37;8.17;;;13.20;99.90;;;;;;5021285;28;20247;-80
2022/10/19 04:09:25;;;;;;;8.57;8.37;;;13.20;99.90;;;;;;5021215;28;20319;-80
2022/10/19 04:11:53;;;;;;;8.27;8.07;;;13.30;99.90;;;;;;5021139;28;20258;-80
2022/10/19 04:14:22;;;;;;;8.47;8.27;;;13.30;99.90;;;;;;5021093;28;20320;-80
2022/10/19 04:16:52;;;;;;;8.60;8.40;;;13.20;99.90;;;;;;5020694;28;20240;-80
2022/10/19 04:19:25;;;;;;;8.63;8.43;;;13.20;99.90;;;;;;5021094;28;20220;-80
2022/10/19 04:21:53;;;;;;;8.50;8.30;;;13.20;99.90;;;;;;5021165;28;20252;-80
2022/10/19 04:24:20;;;;;;;8.70;8.50;;;13.20;99.90;;;;;;5020549;28;20263;-80
2022/10/19 04:26:50;;;;;;;8.77;8.57;;;13.20;99.90;;;;;;5020817;28;20335;-80
2022/10/19 04:29:21;;;;;;;8.60;8.40;;;13.20;99.90;;;;;;5021200;28;20273;-80
2022/10/19 04:31:50;;;;;;;8.50;8.30;;;13.20;99.90;;;;;;5021718;28;20232;-80
2022/10/19 04:34:21;;;;;;;8.50;8.30;;;13.20;99.90;;;;;;5020086;28;20314;-80
2022/10/19 04:36:49;;;;;;;8.40;8.20;;;13.20;99.90;;;;;;5021394;28;20243;-80
2022/10/19 04:39:18;;;;;;;8.50;8.30;;;13.20;99.90;;;;;;5020993;28;20236;-80
2022/10/19 04:41:48;;;;;;;8.40;8.20;;;13.20;99.90;;;;;;5020711;28;20244;-82
2022/10/19 04:44:17;;;;;;;8.40;8.20;;;13.20;99.90;;;;;;5020216;28;20290;-80
2022/10/19 04:46:47;;;;;;;8.40;8.20;;;13.20;99.90;;;;;;5020315;28;20276;-81
2022/10/19 04:49:16;;;;;;;8.50;8.30;;;13.10;99.90;;;;;;5020267;28;20323;-80
2022/10/19 04:51:54;;;;;;;8.30;8.10;;;13.20;99.90;;;;;;5020560;28;20323;-80
2022/10/19 04:54:24;;;;;;;8.23;8.03;;;13.10;99.90;;;;;;5020308;28;20240;-80
2022/10/19 04:56:54;;;;;;;8.37;8.17;;;13.10;99.90;;;;;;5020833;28;20304;-81
2022/10/19 04:59:23;;;;;;;8.67;8.47;;;13.10;99.90;;;;;;5020261;28;20236;-80
2022/10/19 05:01:52;;;;;;;8.63;8.43;;;13.10;99.90;;;;;;5020568;28;20251;-81
2022/10/19 05:04:22;;;;;;;8.30;8.10;;;13.10;99.90;;;;;;5020243;28;20323;-81
2022/10/19 05:09:39;;;;;;;8.40;8.20;;;13.10;99.90;;;;;;5019737;28;20259;-80
2022/10/19 05:12:09;;;;;;;8.20;8.00;;;13.10;99.90;;;;;;5020762;28;20270;-80
2022/10/19 05:14:38;;;;;;;8.40;8.20;;;13.10;99.90;;;;;;5019594;28;20335;-80
2022/10/19 05:17:08;;;;;;;8.17;7.97;;;13.10;99.90;;;;;;5018827;28;20236;-80
2022/10/19 05:19:36;;;;;;;8.30;8.10;;;13.00;99.90;;;;;;5020169;28;20290;-81
2022/10/19 05:22:17;;;;;;;8.50;8.30;;;13.00;99.90;;;;;;5020149;28;20272;-81
2022/10/19 05:24:45;;;;;;;8.27;8.07;;;12.90;99.90;;;;;;5020666;28;20802;-81
2022/10/19 05:27:13;;;;;;;8.68;8.48;;;12.90;99.90;;;;;;5020240;28;20920;-81
2022/10/19 05:29:42;;;;;;;8.63;8.43;;;12.90;99.90;;;;;;5031677;28;20247;-81
2022/10/19 05:32:12;;;;;;;9.40;9.10;;;12.80;99.90;;;;;;5040606;28;20318;-81
2022/10/19 05:34:40;;;;;;;9.40;9.10;;;12.80;99.90;;;;;;5086372;22;20292;-80
2022/10/19 05:37:09;;;;;;;9.20;8.90;;;12.80;99.90;;;;;;5101031;28;20206;-81
2022/10/19 05:39:37;;;;;;;9.30;9.00;;;12.80;99.90;;;;;;5100895;28;20222;-80
2022/10/19 05:42:04;;;;;;;9.00;8.70;;;12.80;99.90;;;;;;5100606;28;20270;-80
2022/10/19 05:44:32;;;;;;;9.40;9.10;;;12.80;99.90;;;;;;5100031;28;20230;-78
2022/10/19 05:46:59;;;;;;;9.03;8.73;;;12.70;99.90;;;;;;5100707;28;20213;-79
2022/10/19 05:49:27;;;;;;;9.50;9.20;;;12.70;99.90;;;;;;5089843;28;20244;-79
2022/10/19 05:51:55;;;;;;;9.20;8.90;;;12.70;99.90;;;;;;5080305;28;20203;-80
2022/10/19 05:54:24;;;;;;;9.17;8.87;;;12.70;99.90;;;;;;5079853;28;20239;-80
2022/10/19 05:56:51;;;;;;;9.40;9.10;;;12.60;99.90;;;;;;5079971;28;20223;-79
2022/10/19 05:59:41;;;;;;;9.60;9.30;;;12.60;99.90;;;;;;5080455;28;20214;-82
2022/10/19 06:02:14;;;;;;;9.20;8.90;;;12.70;99.90;;;;;;5075252;28;20275;-81
2022/10/19 06:04:41;;;;;;;9.40;9.10;;;12.60;99.90;;;;;;5073533;28;20239;-81
2022/10/19 06:07:09;;;;;;;9.43;9.13;;;12.60;99.90;;;;;;5074143;28;20234;-81
2022/10/19 06:09:38;;;;;;;9.30;9.00;;;12.50;99.90;;;;;;5068444;28;20265;-81
2022/10/19 06:12:05;;;;;;;9.30;9.00;;;12.60;99.90;;;;;;5059873;28;20281;-80
2022/10/19 06:14:33;;;;;;;9.37;9.07;;;12.50;99.90;;;;;;5063942;28;20238;-80
2022/10/19 06:17:00;;;;;;;9.10;8.80;;;12.50;99.90;;;;;;5069791;28;20237;-79
2022/10/19 06:19:28;;;;;;;9.40;9.10;;;12.50;99.90;;;;;;5058923;28;20230;-80
2022/10/19 06:21:55;;;;;;;9.63;9.33;;;12.40;99.90;;;;;;5062838;28;20314;-81
2022/10/19 06:24:23;;;;;;;9.33;9.03;;;12.40;99.90;;;;;;5074725;28;20306;-82
2022/10/19 06:26:54;;;;;;;9.40;9.10;;;12.40;99.90;;;;;;5083077;28;20238;-82
2022/10/19 06:29:21;;;;;;;9.50;9.20;;;12.50;99.90;;;;;;5075535;28;20240;-82
2022/10/19 06:31:50;;;;;;;9.50;9.20;;;12.50;99.90;;;;;;5068405;28;20253;-80
2022/10/19 06:34:19;;;;;;;9.43;9.13;;;12.50;99.90;;;;;;5078159;28;20233;-81
2022/10/19 06:36:47;;;;;;;9.23;8.93;;;12.40;99.90;;;;;;5089431;28;20252;-81
2022/10/19 06:39:14;;;;;;;9.30;9.00;;;12.40;99.90;;;;;;5084983;28;20282;-81
2022/10/19 06:41:42;;;;;;;9.50;9.20;;;12.40;99.90;;;;;;5079048;28;20260;-80
2022/10/19 06:44:11;;;;;;;9.30;9.00;;;12.40;99.90;;;;;;5081265;28;20238;-81
2022/10/19 06:46:39;;;;;;;8.90;8.70;;;12.50;99.90;;;;;;5083519;28;20229;-82
2022/10/19 06:49:06;;;;;;;9.10;8.80;;;12.50;99.90;;;;;;5083760;28;20299;-81
2022/10/19 06:51:34;;;;;;;9.20;8.90;;;12.50;99.90;;;;;;5083677;28;20222;-80
2022/10/19 06:54:02;;;;;;;8.87;8.67;;;12.50;99.90;;;;;;5071835;28;20297;-80
2022/10/19 06:56:29;;;;;;;8.87;8.67;;;12.40;99.90;;;;;;5061587;28;20224;-81
2022/10/19 06:58:58;;;;;;;9.00;8.77;;;12.50;99.90;;;;;;5062036;28;20283;-81
2022/10/19 07:01:27;;;;;;;9.03;8.73;;;12.50;99.90;;;;;;5061956;28;20231;-82
2022/10/19 07:03:55;;;;;;;9.00;8.70;;;12.50;99.90;;;;;;5061396;28;20317;-81
2022/10/19 07:06:23;;;;;;;9.10;8.80;;;12.50;99.90;;;;;;5071312;28;20235;-81
2022/10/19 07:08:52;;;;;;;9.30;9.00;;;12.50;99.90;;;;;;5063117;28;20237;-81
2022/10/19 07:11:22;;;;;;;9.30;9.00;;;12.50;99.90;;;;;;5063231;28;20230;-83
2022/10/19 07:13:50;;;;;;;9.20;8.90;;;12.50;99.90;;;;;;5062830;28;20230;-81
2022/10/19 07:16:19;;;;;;;9.10;8.80;;;12.50;99.90;;;;;;5061884;28;20333;-80
2022/10/19 07:18:49;;;;;;;9.50;9.20;;;12.50;99.90;;;;;;5065523;28;20290;-81
2022/10/19 07:21:17;;;;;;;9.30;9.00;;;12.40;99.90;;;;;;5063772;28;20310;-82
2022/10/19 07:23:47;;;;;;;8.93;8.63;;;12.50;99.90;;;;;;5071502;28;20234;-82
2022/10/19 07:26:19;;;;;;;9.47;9.17;;;12.50;99.90;;;;;;5080131;28;20234;-81
2022/10/19 07:28:49;;;;;;;9.03;8.73;;;12.50;99.90;;;;;;5080498;28;20238;-81
2022/10/19 07:31:20;;;;;;;9.57;9.27;;;12.50;99.90;;;;;;5080082;28;20226;-80
2022/10/19 07:33:53;;;;;;;9.67;9.37;;;12.50;99.90;;;;;;5079582;28;20260;-80
2022/10/19 07:36:21;;;;;;;9.50;9.20;;;12.50;99.90;;;;;;5080178;28;20233;-80
2022/10/19 07:38:48;;;;;;;9.60;9.30;;;12.50;99.90;;;;;;5080435;28;20234;-80
2022/10/19 07:41:18;;;;;;;9.93;9.63;;;12.50;99.90;;;;;;5080376;28;20309;-80
2022/10/19 07:43:47;;;;;;;9.80;9.50;;;12.50;99.90;;;;;;5080562;28;20306;-80
2022/10/19 07:46:18;;;;;;;9.57;9.27;;;12.60;99.90;;;;;;5079457;28;20276;-81
2022/10/19 07:48:46;;;;;;;9.70;9.40;;;12.60;99.90;;;;;;5080206;28;20307;-80
2022/10/19 07:51:17;;;;;;;9.80;9.50;;;12.70;99.90;;;;;;5081646;28;20325;-80
2022/10/19 07:53:45;;;;;;;9.50;9.20;;;12.70;99.90;;;;;;5081189;28;20320;-79
2022/10/19 07:56:14;;;;;;;9.40;9.10;;;12.80;99.90;;;;;;5079966;28;20345;-80
2022/10/19 07:58:43;;;;;;;9.47;9.17;;;12.80;99.90;;;;;;5081224;28;20329;-81
2022/10/19 08:01:14;;;;;;;9.30;9.00;;;12.80;99.90;;;;;;5071687;28;21011;-81
2022/10/19 08:03:42;;;;;;;9.40;9.10;;;12.80;99.90;;;;;;5062970;28;20235;-81
2022/10/19 08:06:17;;;;;;;9.10;8.80;;;12.80;99.90;;;;;;5062668;28;20259;-81
2022/10/19 08:08:46;;;;;;;9.40;9.10;;;12.80;99.90;;;;;;5054170;28;20256;-81
2022/10/19 08:11:17;;;;;;;9.17;8.87;;;12.80;99.90;;;;;;5061968;28;20227;-81
2022/10/19 08:13:45;;;;;;;9.10;8.80;;;12.80;99.90;;;;;;5071053;28;20250;-81
2022/10/19 08:16:24;;;;;;;9.30;9.00;;;12.90;99.90;;;;;;5079702;28;20261;-81
2022/10/19 08:18:57;;;;;;;9.00;8.70;;;12.90;99.90;;;;;;5080186;28;20237;-80
2022/10/19 08:21:28;;;;;;;9.20;8.90;;;12.90;99.90;;;;;;5079587;28;20229;-81
2022/10/19 08:23:56;;;;;;;9.17;8.87;;;13.00;99.90;;;;;;5080613;28;20230;-80
2022/10/19 08:26:25;;;;;;;9.27;8.97;;;13.00;99.90;;;;;;5080601;28;20242;-80
2022/10/19 08:28:52;;;;;;;9.30;9.00;;;13.10;99.90;;;;;;5079864;28;20309;-77
2022/10/19 08:31:22;;;;;;;9.10;8.80;;;13.10;99.90;;;;;;5081911;28;20312;-81
2022/10/19 08:33:51;;;;;;;9.20;8.90;;;13.20;99.90;;;;;;5081680;28;20230;-81
2022/10/19 08:36:20;;;;;;;9.00;8.73;;;13.20;99.90;;;;;;5080928;28;20238;-81
2022/10/19 08:38:50;;;;;;;9.20;8.90;;;13.20;99.90;;;;;;5080741;28;20252;-81
2022/10/19 08:41:37;;;;;;;9.50;9.20;;;13.10;99.90;;;;;;5080609;28;20236;-81
2022/10/19 08:44:46;;;;;;;9.50;9.20;;;13.20;99.90;;;;;;5080938;28;20697;-81
2022/10/19 08:47:27;;;;;;;9.30;9.00;;;13.20;99.90;;;;;;5081074;28;20232;-81
2022/10/19 08:49:56;;;;;;;9.20;8.90;;;13.20;99.90;;;;;;5071541;28;20253;-80
2022/10/19 08:52:28;;;;;;;8.93;8.73;;;13.20;99.90;;;;;;5063598;28;20298;-80
2022/10/19 08:55:03;;;;;;;9.00;8.70;;;13.20;99.90;;;;;;5060713;28;20333;-80
2022/10/19 08:57:44;;;;;;;8.97;8.70;;;13.20;99.90;;;;;;5060465;28;20264;-81
2022/10/19 09:00:25;;;;;;;9.10;8.80;;;13.20;99.90;;;;;;5071784;28;20317;-81
2022/10/19 09:03:04;;;;;;;9.10;8.80;;;13.10;99.90;;;;;;5060955;28;20257;-81
2022/10/19 09:05:42;;;;;;;9.40;9.10;;;13.10;99.90;;;;;;5038970;28;20250;-81
2022/10/19 09:08:11;;;;;;;9.40;9.10;;;13.20;99.90;;;;;;5053437;28;20226;-82
2022/10/19 09:10:45;;;;;;;9.60;9.30;;;13.20;99.90;;;;;;5067241;28;20317;-81
2022/10/19 09:13:33;;;;;;;9.60;9.30;;;13.20;99.90;;;;;;5062727;28;21082;-81
2022/10/19 09:16:05;;;;;;;9.10;8.80;;;13.20;99.90;;;;;;5059132;28;20241;-81
2022/10/19 09:18:38;;;;;;;9.00;8.70;;;13.20;99.90;;;;;;5060384;28;20230;-82
2022/10/19 09:21:12;;;;;;;9.20;8.90;;;13.20;99.90;;;;;;5060191;28;20238;-80
2022/10/19 09:23:44;;;;;;;8.70;8.50;;;13.20;99.90;;;;;;5061359;28;20214;-82
2022/10/19 09:26:17;;;;;;;9.23;8.93;;;13.30;99.90;;;;;;5060193;28;20241;-81
2022/10/19 09:28:52;;;;;;;8.97;8.67;;;13.50;99.90;;;;;;5061424;28;20238;-83
2022/10/19 09:31:29;;;;;;;9.27;8.97;;;13.40;99.90;;;;;;5060438;28;20273;-81
2022/10/19 09:34:02;;;;;;;9.03;8.73;;;13.40;99.90;;;;;;5060099;28;20227;-82
2022/10/19 09:36:39;;;;;;;8.90;8.60;;;13.50;99.90;;;;;;5060453;28;20235;-81
2022/10/19 09:39:06;;;;;;;9.20;8.90;;;13.50;99.90;;;;;;5059995;28;20234;-80
2022/10/19 09:41:37;;;;;;;8.70;8.50;;;13.60;99.90;;;;;;5059773;28;20233;-82
2022/10/19 09:44:06;;;;;;;8.73;8.53;;;13.60;99.90;;;;;;5060154;28;20257;-81
2022/10/19 09:46:47;;;;;;;9.00;8.70;;;13.70;99.90;;;;;;5059711;28;20257;-81
2022/10/19 09:49:14;;;;;;;9.07;8.77;;;13.40;99.90;;;;;;5060329;28;20234;-81
2022/10/19 09:51:51;;;;;;;9.20;8.90;;;13.50;99.90;;;;;;5069627;28;20257;-79
2022/10/19 09:54:32;;;;;;;9.30;9.00;;;13.50;99.90;;;;;;5068933;28;20260;-81
2022/10/19 09:57:03;;;;;;;9.10;8.80;;;13.50;99.90;;;;;;5052373;28;20242;-81
2022/10/19 09:59:35;;;;;;;9.07;8.77;;;13.60;99.90;;;;;;5060154;28;20293;-81
2022/10/19 10:02:20;;;;;;;9.30;9.00;;;13.60;99.90;;;;;;5059469;28;20314;-81
2022/10/19 10:04:57;;;;;;;9.40;9.10;;;13.60;99.90;;;;;;5058784;28;20242;-83
2022/10/19 10:07:33;;;;;;;9.10;8.80;;;13.60;99.90;;;;;;5059677;28;20333;-81
2022/10/19 10:10:02;;;;;;;9.23;8.93;;;13.60;99.90;;;;;;5061015;28;20281;-83
2022/10/19 10:12:37;;;;;;;9.20;8.90;;;13.60;99.90;;;;;;5060810;28;20238;-81
2022/10/19 10:15:21;;;;;;;9.40;9.10;;;13.70;99.90;;;;;;5067489;28;20234;-83
2022/10/19 10:17:50;;;;;;;9.00;8.70;;;13.70;99.90;;;;;;5062524;28;20235;-82
2022/10/19 10:20:28;;;;;;;9.17;8.87;;;13.60;99.90;;;;;;5064012;28;20241;-81
2022/10/19 10:22:59;;;;;;;8.90;8.60;;;13.60;99.90;;;;;;5062166;28;20223;-82
2022/10/19 10:25:33;;;;;;;9.23;8.93;;;13.70;99.90;;;;;;5055672;28;20270;-82
2022/10/19 10:28:18;;;;;;;9.10;8.80;;;13.90;99.90;;;;;;5066198;28;20226;-80
2022/10/19 10:30:49;;;;;;;9.13;8.83;;;13.90;99.90;;;;;;5069844;28;20231;-79
2022/10/19 10:33:19;;;;;;;9.30;9.00;;;13.90;99.90;;;;;;5074228;28;20287;-80
2022/10/19 10:35:52;;;;;;;9.60;9.30;;;13.90;99.90;;;;;;5074030;28;20245;-80
2022/10/19 10:38:26;;;;;;;9.48;9.18;;;13.90;99.90;;;;;;5070755;28;20297;-81
2022/10/19 10:40:57;;;;;;;9.20;8.90;;;14.00;99.90;;;;;;5067481;28;20333;-81
2022/10/19 10:43:32;;;;;;;9.60;9.30;;;14.10;99.90;;;;;;5070810;28;20279;-80
2022/10/19 10:46:05;;;;;;;9.27;8.98;;;14.20;99.90;;;;;;5075612;28;20330;-80
2022/10/19 10:48:37;;;;;;;9.37;9.07;;;14.30;99.90;;;;;;5083269;28;20231;-80
2022/10/19 10:51:19;;;;;;;9.17;8.87;;;14.30;99.90;;;;;;5085398;28;20253;-80
2022/10/19 10:53:47;;;;;;;9.27;8.98;;;14.20;99.90;;;;;;5078297;28;20235;-80
2022/10/19 10:56:26;;;;;;;9.13;8.83;;;14.20;99.90;;;;;;5078105;28;20239;-80
2022/10/19 10:59:00;;;;;;;9.27;8.97;;;14.20;99.90;;;;;;5080978;28;20282;-80
2022/10/19 11:01:33;;;;;;;9.43;9.13;;;14.20;99.90;;;;;;5084223;28;20329;-80
2022/10/19 11:04:05;;;;;;;9.50;9.20;;;14.20;99.90;;;;;;5081960;28;20290;-79
2022/10/19 11:06:38;;;;;;;9.37;9.07;;;14.20;99.90;;;;;;5076649;28;20223;-81
2022/10/19 11:09:14;;;;;;;9.20;8.90;;;14.20;99.90;;;;;;5088630;28;20290;-81
2022/10/19 11:11:46;;;;;;;9.70;9.40;;;14.20;99.90;;;;;;5080269;28;20319;-81
2022/10/19 11:14:30;;;;;;;9.63;9.33;;;14.20;99.90;;;;;;5080057;28;20215;-80
2022/10/19 11:17:05;;;;;;;9.80;9.50;;;14.20;99.90;;;;;;5083530;28;20285;-81
2022/10/19 11:19:37;;;;;;;9.80;9.50;;;14.30;99.90;;;;;;5077150;28;20264;-80
2022/10/19 11:22:21;;;;;;;9.70;9.40;;;14.40;99.90;;;;;;5073456;28;20231;-81
2022/10/19 11:25:15;;;;;;;9.50;9.20;;;14.40;99.90;;;;;;5065757;28;20227;-81
2022/10/19 11:27:56;;;;;;;9.67;9.37;;;14.40;99.90;;;;;;5071193;28;20287;-81
2022/10/19 11:30:26;;;;;;;9.80;9.50;;;14.40;99.90;;;;;;5064845;28;20237;-80
2022/10/19 11:33:02;;;;;;;9.80;9.50;;;14.50;99.90;;;;;;5060631;28;20275;-81
2022/10/19 11:35:52;;;;;;;9.57;9.27;;;14.40;99.90;;;;;;5082833;22;20321;-80
2022/10/19 11:38:38;;;;;;;9.45;9.15;;;14.50;99.90;;;;;;5047777;28;20231;-79
2022/10/19 11:41:20;;;;;;;9.40;9.10;;;14.60;99.90;;;;;;5062658;28;20230;-80
2022/10/19 11:44:17;;;;;;;9.30;9.00;;;14.80;99.90;;;;;;5063835;28;20242;-80
2022/10/19 11:47:38;;;;;;;9.43;9.13;;;14.80;99.90;;;;;;5024695;28;20291;-79
2022/10/19 11:50:34;;;;;;;9.27;8.98;;;14.90;99.90;;;;;;5029532;28;20231;-80
2022/10/19 11:53:14;;;;;;;9.25;8.95;;;14.90;99.90;;;;;;5040634;28;20326;-79
2022/10/19 11:55:51;;;;;;;9.65;9.35;;;14.90;99.90;;;;;;5042654;28;20239;-79
2022/10/19 11:58:38;;;;;;;9.73;9.43;;;15.10;99.90;;;;;;5041835;28;20283;-80
2022/10/19 12:01:25;;;;;;;10.05;9.75;;;15.50;99.90;;;;;;5024757;28;20228;-80
2022/10/19 12:04:30;;;;;;;10.30;10.00;;;16.20;99.90;;;;;;5034535;28;20300;-80
2022/10/19 12:07:43;;;;;;;10.50;10.20;;;17.00;99.90;;;;;;5028529;28;20228;-80
2022/10/19 12:10:24;;;;;;;10.30;10.00;;;17.70;99.90;;;;;;5029242;28;20228;-80
2022/10/19 12:13:01;;;;;;;10.50;10.20;;;18.10;99.90;;;;;;5022975;28;20244;-81
2022/10/19 12:15:38;;;;;;;10.32;10.02;;;18.80;99.90;;;;;;5021798;28;20343;-81
2022/10/19 12:18:16;;;;;;;10.10;9.80;;;19.00;99.90;;;;;;5022604;28;20295;-80
2022/10/19 12:20:48;;;;;;;10.50;10.20;;;19.00;99.90;;;;;;5021296;28;20240;-81
2022/10/19 12:23:27;;;;;;;10.50;10.20;;;18.90;99.90;;;;;;5034150;28;20223;-80
2022/10/19 12:26:02;;;;;;;10.30;10.00;;;18.80;99.90;;;;;;5043947;28;20224;-79
2022/10/19 12:28:33;;;;;;;10.00;9.70;;;18.70;99.90;;;;;;5040309;28;20226;-80
2022/10/19 12:31:03;;;;;;;10.00;9.70;;;18.70;99.90;;;;;;5040495;28;20211;-80
2022/10/19 12:33:46;;;;;;;9.75;9.45;;;18.60;99.90;;;;;;5040582;28;20221;-79
2022/10/19 12:36:37;;;;;;;9.98;9.68;;;18.60;99.90;;;;;;5038896;28;20244;-81
2022/10/19 12:39:17;;;;;;;10.07;9.77;;;18.60;99.90;;;;;;5036823;28;20259;-81
2022/10/19 12:45:18;;;;;;;10.20;9.90;;;18.60;99.90;;;;;;5035698;28;20220;-80
2022/10/19 12:48:23;;;;;;;10.00;9.70;;;19.00;99.90;;;;;;5031980;28;20240;-80
2022/10/19 12:51:17;;;;;;;10.38;10.07;;;19.40;99.90;;;;;;5037205;28;20271;-81
2022/10/19 12:53:48;;;;;;;9.90;9.60;;;19.70;99.90;;;;;;5029746;28;20234;-81
2022/10/19 12:56:32;;;;;;;10.20;9.90;;;19.60;99.90;;;;;;5045200;28;20242;-81
2022/10/19 12:59:02;;;;;;;10.38;10.07;;;19.90;99.90;;;;;;5048126;28;20232;-81
2022/10/19 13:01:43;;;;;;;11.10;10.80;;;20.30;99.90;;;;;;5047907;28;20231;-81
2022/10/19 13:04:20;;;;;;;11.20;10.90;;;20.90;99.90;;;;;;5038690;28;20287;-82
2022/10/19 13:06:50;;;;;;;11.25;10.95;;;21.50;99.90;;;;;;5048257;28;20217;-83
2022/10/19 13:09:27;;;;;;;11.10;10.80;;;22.20;99.90;;;;;;5056299;28;20335;-83
2022/10/19 13:12:48;;;;;;;10.80;10.50;;;22.70;99.90;;;;;;5056301;28;20227;-84
2022/10/19 13:15:55;;;;;;;10.73;10.43;;;22.90;99.90;;;;;;5054597;28;20284;-81
2022/10/19 13:22:30;;;;;;;10.63;10.32;;;23.00;99.90;;;;;;5027690;28;20232;-84
2022/10/19 13:25:27;;;;;;;10.93;10.63;;;22.80;99.90;;;;;;5043453;28;20243;-82
2022/10/19 13:28:02;;;;;;;10.68;10.38;;;22.90;99.90;;;;;;5000156;28;20254;-82
2022/10/19 13:31:01;;;;;;;10.50;10.20;;;22.80;99.90;;;;;;5034658;28;20216;-82
2022/10/19 13:33:53;;;;;;;10.52;10.23;;;23.00;99.90;;;;;;5035003;28;20235;-81